Time;durP1;ratioP1;P1;durP2;ratioP2;P2;SDS_P1;SDS_P2;PMS_P1;PMS_P2;Temp;Humidity;BMP_temperature;BMP_pressure;BME280_temperature;BME280_humidity;BME280_pressure;Samples;Min_cycle;Max_cycle;Signal;HPM_P1;HPM_P2
2022/05/27 00:02:22;;;;;;;4.03;1.43;;;20.20;1.00;;;;;;5047982;28;20454;-56
2022/05/27 00:04:48;;;;;;;1.87;1.50;;;;;;;;;;5048169;28;20203;-55
2022/05/27 00:07:14;;;;;;;3.23;1.50;;;20.30;1.00;;;;;;5044198;28;20551;-56
2022/05/27 00:09:39;;;;;;;2.23;1.20;;;20.30;1.00;;;;;;5044784;28;20494;-56
2022/05/27 00:12:05;;;;;;;2.10;1.30;;;20.30;1.00;;;;;;5049104;28;20216;-54
2022/05/27 00:14:31;;;;;;;2.90;1.83;;;20.20;1.00;;;;;;5044361;28;20215;-54
2022/05/27 00:16:57;;;;;;;2.20;1.43;;;;;;;;;;5046710;28;20482;-55
2022/05/27 00:19:22;;;;;;;1.67;1.57;;;20.30;1.00;;;;;;5049903;28;20196;-53
2022/05/27 00:21:48;;;;;;;3.30;1.50;;;20.20;1.00;;;;;;5040951;28;20538;-53
2022/05/27 00:24:13;;;;;;;1.77;1.50;;;20.10;1.00;;;;;;5047563;28;20657;-53
2022/05/27 00:26:39;;;;;;;1.30;1.20;;;20.10;1.00;;;;;;5046778;28;20203;-53
2022/05/27 00:29:04;;;;;;;2.17;1.50;;;20.10;1.00;;;;;;5048538;28;20230;-55
2022/05/27 00:31:32;;;;;;;4.00;1.70;;;20.10;1.00;;;;;;5042341;28;20587;-55
2022/05/27 00:33:57;;;;;;;2.07;1.43;;;20.10;1.00;;;;;;5041409;28;20223;-54
2022/05/27 00:36:23;;;;;;;4.93;1.30;;;20.10;1.00;;;;;;5043176;28;20474;-54
2022/05/27 00:38:49;;;;;;;2.03;1.20;;;20.10;1.00;;;;;;5041493;28;20203;-56
2022/05/27 00:41:15;;;;;;;3.63;1.87;;;20.10;1.00;;;;;;5039134;28;20192;-54
2022/05/27 00:43:42;;;;;;;2.77;1.37;;;20.20;1.00;;;;;;5041589;28;20448;-56
2022/05/27 00:46:29;;;;;;;3.40;1.37;;;20.20;1.00;;;;;;5043565;28;20211;-53
2022/05/27 00:49:08;;;;;;;1.70;1.20;;;20.20;1.00;;;;;;5043276;28;20470;-55
2022/05/27 00:51:46;;;;;;;1.83;1.30;;;20.20;1.00;;;;;;5037912;28;20442;-53
2022/05/27 00:54:16;;;;;;;1.90;1.20;;;20.10;1.00;;;;;;5038667;28;20942;-55
2022/05/27 00:56:46;;;;;;;3.23;1.30;;;20.10;1.00;;;;;;5043205;28;20445;-53
2022/05/27 00:59:23;;;;;;;1.40;1.30;;;20.00;1.00;;;;;;5039163;28;20458;-53
2022/05/27 01:01:49;;;;;;;2.20;1.50;;;20.10;1.00;;;;;;5043474;28;20468;-53
2022/05/27 01:04:16;;;;;;;3.57;1.77;;;20.10;1.00;;;;;;5039908;28;20425;-56
2022/05/27 01:06:42;;;;;;;2.00;1.53;;;20.20;1.00;;;;;;5048617;28;20445;-54
2022/05/27 01:09:08;;;;;;;2.47;1.47;;;20.20;1.00;;;;;;5056543;28;20524;-55
2022/05/27 01:11:48;;;;;;;2.60;1.70;;;20.20;1.00;;;;;;5049798;28;20192;-55
2022/05/27 01:14:24;;;;;;;2.87;2.10;;;20.20;1.00;;;;;;5046598;28;20175;-53
2022/05/27 01:17:24;;;;;;;2.03;1.30;;;20.00;1.00;;;;;;5042916;28;20548;-56
2022/05/27 01:20:19;;;;;;;2.30;1.90;;;20.00;1.00;;;;;;5042430;28;20515;-54
2022/05/27 01:23:14;;;;;;;3.37;1.73;;;20.00;1.00;;;;;;5041599;28;20450;-55
2022/05/27 01:26:17;;;;;;;4.63;2.30;;;19.90;1.00;;;;;;5040246;28;20421;-55
2022/05/27 01:28:50;;;;;;;3.37;1.77;;;20.00;1.00;;;;;;5038047;28;20474;-53
2022/05/27 01:31:43;;;;;;;1.97;1.50;;;20.00;1.00;;;;;;5042418;28;20930;-55
2022/05/27 01:34:15;;;;;;;3.13;1.43;;;20.00;1.00;;;;;;5055352;28;20810;-53
2022/05/27 01:36:47;;;;;;;2.70;1.97;;;20.10;1.00;;;;;;5053286;28;20513;-55
2022/05/27 01:39:19;;;;;;;3.47;1.83;;;20.00;1.00;;;;;;5048673;28;20927;-52
2022/05/27 01:41:48;;;;;;;2.43;1.50;;;20.00;1.00;;;;;;5039483;28;20454;-54
2022/05/27 01:44:22;;;;;;;2.47;1.83;;;20.00;1.00;;;;;;5049682;28;20558;-55
2022/05/27 01:46:49;;;;;;;1.93;1.70;;;20.00;1.00;;;;;;5050990;28;20519;-57
2022/05/27 01:49:30;;;;;;;4.03;2.03;;;20.00;1.00;;;;;;5043316;28;20474;-55
2022/05/27 01:52:19;;;;;;;4.80;1.70;;;20.00;1.00;;;;;;5043242;28;20553;-53
2022/05/27 01:54:55;;;;;;;2.20;1.73;;;20.00;1.00;;;;;;5046789;28;20855;-54
2022/05/27 01:57:38;;;;;;;3.37;1.40;;;19.90;1.00;;;;;;5046809;28;20442;-53
2022/05/27 02:00:24;;;;;;;4.10;2.10;;;20.00;1.00;;;;;;5044467;28;20450;-52
2022/05/27 02:03:29;;;;;;;2.40;1.73;;;19.90;1.00;;;;;;5044743;28;20432;-54
2022/05/27 02:06:11;;;;;;;2.87;1.87;;;19.90;1.00;;;;;;5046575;28;20424;-54
2022/05/27 02:08:44;;;;;;;4.00;1.73;;;19.90;1.00;;;;;;5044033;28;20849;-55
2022/05/27 02:11:14;;;;;;;2.43;1.23;;;19.90;1.00;;;;;;5047448;28;20534;-54
2022/05/27 02:13:52;;;;;;;5.23;1.67;;;20.00;1.00;;;;;;5050503;28;20464;-56
2022/05/27 02:16:22;;;;;;;2.50;1.90;;;19.90;1.00;;;;;;5056739;28;20449;-56
2022/05/27 02:19:22;;;;;;;2.87;2.00;;;19.90;1.00;;;;;;5058093;28;20444;-55
2022/05/27 02:21:57;;;;;;;1.57;1.40;;;19.80;1.00;;;;;;5033052;28;20551;-53
2022/05/27 02:24:26;;;;;;;3.70;1.77;;;19.90;1.00;;;;;;5048232;28;20424;-55
2022/05/27 02:27:01;;;;;;;2.50;1.50;;;19.90;1.00;;;;;;5048923;28;20428;-57
2022/05/27 02:29:30;;;;;;;5.10;1.63;;;20.00;1.00;;;;;;5050978;28;20523;-53
2022/05/27 02:32:02;;;;;;;1.93;1.70;;;19.90;1.00;;;;;;5049705;28;20446;-54
2022/05/27 02:37:31;;;;;;;2.87;2.10;;;19.90;1.00;;;;;;5051105;28;20445;-54
2022/05/27 02:40:01;;;;;;;2.53;1.70;;;19.80;1.00;;;;;;5050564;28;20443;-54
2022/05/27 02:42:48;;;;;;;1.90;1.43;;;19.80;1.00;;;;;;5049693;28;20920;-55
2022/05/27 02:45:35;;;;;;;3.20;1.67;;;19.90;1.00;;;;;;5052095;28;20478;-55
2022/05/27 02:48:28;;;;;;;2.57;1.80;;;19.90;1.00;;;;;;5049119;28;20462;-54
2022/05/27 02:51:21;;;;;;;4.13;1.90;;;19.80;1.00;;;;;;5049248;28;20513;-55
2022/05/27 02:54:03;;;;;;;3.73;1.47;;;19.80;1.00;;;;;;5045564;28;20428;-54
2022/05/27 02:56:43;;;;;;;4.63;1.70;;;19.80;1.00;;;;;;5049620;28;20443;-55
2022/05/27 02:59:11;;;;;;;2.30;1.50;;;19.80;1.00;;;;;;5051137;28;20446;-53
2022/05/27 03:01:37;;;;;;;6.77;1.87;;;19.80;1.00;;;;;;5053620;28;20417;-55
2022/05/27 03:04:04;;;;;;;3.30;1.80;;;19.80;1.00;;;;;;5045943;28;20457;-53
2022/05/27 03:06:48;;;;;;;9.90;1.93;;;19.80;1.00;;;;;;5053115;28;20188;-54
2022/05/27 03:09:27;;;;;;;2.27;1.60;;;19.70;1.00;;;;;;5047665;28;20470;-54
2022/05/27 03:12:08;;;;;;;2.13;1.63;;;19.80;1.00;;;;;;5048884;28;20443;-55
2022/05/27 03:15:07;;;;;;;2.57;1.70;;;19.80;1.00;;;;;;5048097;28;20485;-55
2022/05/27 03:18:10;;;;;;;2.63;1.80;;;19.70;1.00;;;;;;5045889;28;21302;-55
2022/05/27 03:21:12;;;;;;;1.77;1.60;;;19.70;1.00;;;;;;5050405;28;20815;-52
2022/05/27 03:23:41;;;;;;;3.17;1.60;;;19.60;1.00;;;;;;5051659;28;20468;-54
2022/05/27 03:26:37;;;;;;;2.57;1.87;;;19.70;1.00;;;;;;5049000;28;20499;-53
2022/05/27 03:29:15;;;;;;;2.87;1.83;;;19.70;1.00;;;;;;5049505;28;20462;-53
2022/05/27 03:31:56;;;;;;;3.97;1.93;;;19.60;1.00;;;;;;5042592;28;21212;-55
2022/05/27 03:34:44;;;;;;;6.73;2.10;;;19.70;1.00;;;;;;5068638;28;20499;-56
2022/05/27 03:37:12;;;;;;;4.87;1.73;;;19.70;1.00;;;;;;5051256;28;20446;-54
2022/05/27 03:39:58;;;;;;;4.67;2.10;;;19.70;1.00;;;;;;5049615;28;20429;-55
2022/05/27 03:42:25;;;;;;;3.50;1.70;;;19.60;1.00;;;;;;5044670;28;20448;-56
2022/05/27 03:45:00;;;;;;;2.73;1.90;;;19.60;1.00;;;;;;5062848;28;20450;-54
2022/05/27 03:47:25;;;;;;;2.90;1.87;;;19.60;1.00;;;;;;5048439;28;20444;-54
2022/05/27 03:49:51;;;;;;;2.90;1.70;;;19.60;1.00;;;;;;5047240;28;20505;-55
2022/05/27 03:52:41;;;;;;;4.40;2.10;;;19.50;1.00;;;;;;5049426;28;20204;-55
2022/05/27 03:55:08;;;;;;;3.30;1.80;;;19.50;1.00;;;;;;5045635;28;20204;-55
2022/05/27 03:57:33;;;;;;;4.90;2.10;;;19.70;1.00;;;;;;5046836;28;20866;-55
2022/05/27 03:59:59;;;;;;;3.83;2.03;;;19.50;1.00;;;;;;5049660;28;20474;-53
2022/05/27 04:02:25;;;;;;;3.20;2.27;;;19.50;1.00;;;;;;5044048;28;20222;-56
2022/05/27 04:04:50;;;;;;;3.13;2.17;;;19.50;1.00;;;;;;5064536;28;20217;-54
2022/05/27 04:07:16;;;;;;;2.37;1.70;;;19.60;1.00;;;;;;5049387;28;20199;-54
2022/05/27 04:09:41;;;;;;;2.20;1.80;;;19.60;1.00;;;;;;5046922;28;20216;-53
2022/05/27 04:12:10;;;;;;;1.67;1.50;;;19.60;1.00;;;;;;5047793;28;20198;-54
2022/05/27 04:14:35;;;;;;;2.50;1.77;;;19.70;1.00;;;;;;5052734;28;20194;-53
2022/05/27 04:19:45;;;;;;;2.57;1.50;;;19.60;1.00;;;;;;5049294;28;20210;-54
2022/05/27 04:22:11;;;;;;;4.50;1.60;;;19.70;1.00;;;;;;5060967;28;20425;-54
2022/05/27 04:24:37;;;;;;;3.83;1.90;;;19.70;1.00;;;;;;5049854;28;20644;-56
2022/05/27 04:27:11;;;;;;;4.30;2.40;;;19.60;1.00;;;;;;5049139;28;20192;-55
2022/05/27 04:29:39;;;;;;;1.90;1.70;;;19.60;1.00;;;;;;5055399;28;21032;-54
2022/05/27 04:32:05;;;;;;;2.33;1.60;;;19.60;1.00;;;;;;5051049;28;20539;-53
2022/05/27 04:34:31;;;;;;;1.80;1.70;;;19.60;1.00;;;;;;5044511;28;20478;-55
2022/05/27 04:36:56;;;;;;;2.43;1.73;;;19.50;1.00;;;;;;5047600;28;20230;-55
2022/05/27 04:39:22;;;;;;;4.77;2.20;;;19.50;1.00;;;;;;5043564;28;20667;-54
2022/05/27 04:41:47;;;;;;;2.40;1.77;;;19.80;1.00;;;;;;5070803;28;20202;-55
2022/05/27 04:44:13;;;;;;;1.90;1.70;;;19.60;1.00;;;;;;5053741;28;20198;-54
2022/05/27 04:46:38;;;;;;;5.10;1.73;;;19.60;1.00;;;;;;5055396;28;20658;-56
2022/05/27 04:49:04;;;;;;;2.40;1.80;;;19.50;1.00;;;;;;5055346;28;20239;-54
2022/05/27 04:51:29;;;;;;;2.80;1.63;;;19.50;1.00;;;;;;5045895;28;20188;-55
2022/05/27 04:53:55;;;;;;;4.30;2.10;;;19.50;1.00;;;;;;5048720;28;20183;-54
2022/05/27 04:56:24;;;;;;;3.77;1.87;;;19.40;1.00;;;;;;5040633;28;20290;-54
2022/05/27 04:58:50;;;;;;;2.20;2.00;;;19.50;1.00;;;;;;5050162;28;20196;-53
2022/05/27 05:01:16;;;;;;;3.33;2.63;;;19.40;1.00;;;;;;5046863;28;20458;-54
2022/05/27 05:03:43;;;;;;;2.83;1.47;;;19.30;1.00;;;;;;5045982;28;20188;-55
2022/05/27 05:06:08;;;;;;;2.17;1.87;;;19.30;1.00;;;;;;5049283;28;20592;-54
2022/05/27 05:08:36;;;;;;;2.97;1.90;;;19.30;1.00;;;;;;5050560;28;20538;-54
2022/05/27 05:11:05;;;;;;;2.90;1.80;;;19.40;1.00;;;;;;5048533;28;20211;-56
2022/05/27 05:13:32;;;;;;;3.37;1.70;;;19.40;1.00;;;;;;5047136;28;20450;-55
2022/05/27 05:15:59;;;;;;;2.93;2.30;;;19.10;1.00;;;;;;5049430;28;20948;-57
2022/05/27 05:18:25;;;;;;;2.70;1.97;;;19.10;1.00;;;;;;5046299;28;20454;-53
2022/05/27 05:20:51;;;;;;;3.70;2.30;;;18.90;1.00;;;;;;5048954;28;21015;-55
2022/05/27 05:23:16;;;;;;;4.13;1.93;;;18.90;1.00;;;;;;5050527;28;20518;-56
2022/05/27 05:25:42;;;;;;;2.97;2.10;;;18.90;1.00;;;;;;5046732;28;20192;-53
2022/05/27 05:28:07;;;;;;;2.87;2.07;;;18.80;1.00;;;;;;5044108;28;20258;-56
2022/05/27 05:30:34;;;;;;;1.87;1.77;;;18.80;1.00;;;;;;5057195;28;20214;-57
2022/05/27 05:32:59;;;;;;;3.20;2.00;;;18.80;1.00;;;;;;5050706;28;20712;-55
2022/05/27 05:35:25;;;;;;;4.03;2.40;;;18.80;1.00;;;;;;5047475;28;20525;-54
2022/05/27 05:37:51;;;;;;;3.90;3.40;;;18.60;1.00;;;;;;5049358;28;20268;-55
2022/05/27 05:40:17;;;;;;;3.40;2.93;;;18.50;1.00;;;;;;5049125;28;20496;-57
2022/05/27 05:42:43;;;;;;;3.43;2.93;;;18.60;1.00;;;;;;5066217;28;20606;-54
2022/05/27 05:45:12;;;;;;;2.63;2.10;;;18.70;1.00;;;;;;5062951;28;20503;-56
2022/05/27 05:47:37;;;;;;;4.10;2.30;;;18.70;1.00;;;;;;5050634;28;20445;-54
2022/05/27 05:50:03;;;;;;;2.40;2.20;;;18.70;1.00;;;;;;5053088;28;20489;-55
2022/05/27 05:52:29;;;;;;;3.60;2.77;;;18.60;1.00;;;;;;5053427;28;20183;-55
2022/05/27 05:54:54;;;;;;;2.93;2.43;;;18.50;1.00;;;;;;5050213;28;21055;-55
2022/05/27 05:57:20;;;;;;;4.20;2.53;;;18.50;1.00;;;;;;5053511;28;20184;-55
2022/05/27 05:59:45;;;;;;;3.23;2.40;;;18.50;1.00;;;;;;5050047;28;20255;-53
2022/05/27 06:02:11;;;;;;;2.50;2.23;;;18.40;1.00;;;;;;5049780;28;20196;-54
2022/05/27 06:04:37;;;;;;;11.00;3.10;;;18.30;1.00;;;;;;5049389;28;20231;-55
2022/05/27 06:07:03;;;;;;;5.27;2.60;;;18.20;1.00;;;;;;5051176;28;20446;-55
2022/05/27 06:09:29;;;;;;;3.67;2.50;;;18.20;1.00;;;;;;5051354;28;20999;-55
2022/05/27 06:11:56;;;;;;;8.93;2.73;;;18.20;1.00;;;;;;5054099;28;20441;-55
2022/05/27 06:14:22;;;;;;;4.40;3.03;;;18.10;1.00;;;;;;5052935;28;20180;-56
2022/05/27 06:16:48;;;;;;;6.57;2.77;;;18.10;1.00;;;;;;5048289;28;20446;-57
2022/05/27 06:19:13;;;;;;;3.03;2.43;;;18.20;1.00;;;;;;5053951;28;20430;-55
2022/05/27 06:21:39;;;;;;;7.60;3.33;;;18.20;1.00;;;;;;5047771;28;20448;-55
2022/05/27 06:24:05;;;;;;;3.30;2.67;;;18.20;1.00;;;;;;5048920;28;20322;-55
2022/05/27 06:26:31;;;;;;;2.67;2.43;;;18.30;1.00;;;;;;5048001;28;20218;-55
2022/05/27 06:34:27;;;;;;;3.63;2.63;;;;;;;;;;5052241;28;20682;-56
2022/05/27 06:37:11;;;;;;;3.07;2.30;;;18.40;1.00;;;;;;5053433;28;21271;-57
2022/05/27 06:39:38;;;;;;;3.70;2.63;;;18.40;1.00;;;;;;5054416;28;20438;-54
2022/05/27 06:42:07;;;;;;;2.70;2.23;;;18.40;1.00;;;;;;5049851;28;20442;-52
2022/05/27 06:44:33;;;;;;;2.80;2.60;;;18.40;1.00;;;;;;5047627;28;20458;-54
2022/05/27 06:46:59;;;;;;;3.73;2.30;;;;;;;;;;5044805;28;20829;-54
2022/05/27 06:49:25;;;;;;;5.73;2.90;;;18.20;1.00;;;;;;5051672;28;20199;-56
2022/05/27 06:51:50;;;;;;;5.40;2.67;;;18.20;1.00;;;;;;5047740;28;20446;-53
2022/05/27 06:54:17;;;;;;;3.13;2.60;;;;;;;;;;5050413;28;20221;-54
2022/05/27 06:56:44;;;;;;;4.80;3.07;;;18.30;1.00;;;;;;5047550;28;20184;-53
2022/05/27 06:59:10;;;;;;;5.97;3.43;;;18.30;1.00;;;;;;5049732;28;20473;-53
2022/05/27 07:01:36;;;;;;;5.53;3.60;;;;;;;;;;5046583;28;20992;-55
2022/05/27 07:04:03;;;;;;;3.60;2.90;;;;;;;;;;5045774;28;20477;-54
2022/05/27 07:06:48;;;;;;;5.17;3.20;;;18.00;1.00;;;;;;5051594;28;20458;-55
2022/05/27 07:09:24;;;;;;;4.40;3.33;;;17.90;1.00;;;;;;5049526;28;20590;-55
2022/05/27 07:11:51;;;;;;;4.27;2.70;;;17.90;1.00;;;;;;5050283;28;20515;-55
2022/05/27 07:14:17;;;;;;;2.70;2.50;;;;;;;;;;5049249;28;20458;-55
2022/05/27 07:16:44;;;;;;;3.60;2.60;;;18.10;1.00;;;;;;5056116;28;20455;-57
2022/05/27 07:19:10;;;;;;;5.63;2.27;;;17.80;1.00;;;;;;5063683;28;20442;-54
2022/05/27 07:21:41;;;;;;;4.03;2.57;;;17.80;1.00;;;;;;5049825;28;20474;-54
2022/05/27 07:24:09;;;;;;;3.53;2.20;;;17.80;1.00;;;;;;5050672;28;20279;-54
2022/05/27 07:26:36;;;;;;;4.67;2.93;;;17.60;1.00;;;;;;5052709;28;20629;-54
2022/05/27 07:29:02;;;;;;;4.47;3.03;;;17.40;1.00;;;;;;5049822;28;20466;-56
2022/05/27 07:31:29;;;;;;;2.83;2.50;;;17.40;1.00;;;;;;5050608;28;20489;-55
2022/05/27 07:33:55;;;;;;;2.07;1.40;;;17.40;1.00;;;;;;5049687;28;20484;-54
2022/05/27 07:36:21;;;;;;;1.53;1.43;;;17.00;1.00;;;;;;5052471;28;20450;-55
2022/05/27 07:38:51;;;;;;;2.03;0.83;;;;;;;;;;5046910;28;20442;-57
2022/05/27 07:41:17;;;;;;;1.57;1.20;;;15.90;1.00;;;;;;5049073;28;20184;-57
2022/05/27 07:43:42;;;;;;;3.10;1.60;;;15.60;1.00;;;;;;5050730;28;20450;-55
2022/05/27 07:46:08;;;;;;;2.07;1.80;;;15.30;1.00;;;;;;5049542;28;20497;-55
2022/05/27 07:48:34;;;;;;;2.67;1.77;;;15.20;1.00;;;;;;5052037;28;20242;-56
2022/05/27 07:51:00;;;;;;;1.77;1.40;;;15.20;1.00;;;;;;5049718;28;20233;-55
2022/05/27 07:53:26;;;;;;;2.37;1.27;;;15.20;1.00;;;;;;5050834;28;20187;-55
2022/05/27 07:55:52;;;;;;;1.50;1.40;;;15.30;1.00;;;;;;5051663;28;20442;-53
2022/05/27 07:58:18;;;;;;;4.13;1.37;;;15.20;1.00;;;;;;5049169;28;20473;-57
2022/05/27 08:00:43;;;;;;;1.70;1.57;;;15.20;1.00;;;;;;5055819;28;20572;-54
2022/05/27 08:03:09;;;;;;;4.93;1.60;;;15.10;1.00;;;;;;5060393;28;20188;-55
2022/05/27 08:05:35;;;;;;;1.50;1.40;;;15.30;1.00;;;;;;5054268;28;20274;-56
2022/05/27 08:08:02;;;;;;;1.70;1.60;;;15.30;1.00;;;;;;5057787;28;20192;-56
2022/05/27 08:10:32;;;;;;;1.90;1.63;;;15.00;1.00;;;;;;5049444;28;20447;-57
2022/05/27 08:12:58;;;;;;;1.73;1.60;;;15.00;1.00;;;;;;5049216;28;20453;-54
2022/05/27 08:15:24;;;;;;;1.83;1.60;;;15.30;1.00;;;;;;5047384;28;20940;-55
2022/05/27 08:17:50;;;;;;;1.90;1.10;;;15.10;1.00;;;;;;5047880;28;20192;-52
2022/05/27 08:20:19;;;;;;;1.73;1.30;;;15.10;1.00;;;;;;5046299;28;20447;-53
2022/05/27 08:22:46;;;;;;;1.70;1.40;;;15.20;1.00;;;;;;5071490;28;20501;-54
2022/05/27 08:25:13;;;;;;;2.17;1.63;;;15.30;1.00;;;;;;5053025;28;20465;-55
2022/05/27 08:27:39;;;;;;;2.40;1.73;;;15.20;1.00;;;;;;5051780;28;20543;-55
2022/05/27 08:30:07;;;;;;;5.30;1.97;;;15.20;1.00;;;;;;5051100;28;20520;-54
2022/05/27 08:32:32;;;;;;;2.60;1.80;;;15.50;1.00;;;;;;5051644;28;20470;-57
2022/05/27 08:38:03;;;;;;;1.87;1.37;;;15.40;1.00;;;;;;5051472;28;20187;-54
2022/05/27 08:40:41;;;;;;;2.13;1.20;;;15.50;1.00;;;;;;5051349;28;20442;-56
2022/05/27 08:43:34;;;;;;;2.50;1.03;;;15.40;1.00;;;;;;5051222;28;20430;-56
2022/05/27 08:46:11;;;;;;;2.20;1.17;;;15.50;1.00;;;;;;5051092;28;20539;-54
2022/05/27 08:48:41;;;;;;;1.63;1.10;;;15.50;1.00;;;;;;5051337;28;20458;-55
2022/05/27 08:51:13;;;;;;;1.30;1.10;;;15.70;1.00;;;;;;5051063;28;20474;-55
2022/05/27 08:53:45;;;;;;;1.27;1.17;;;16.00;1.00;;;;;;5051199;28;20463;-53
2022/05/27 08:59:26;;;;;;;1.60;1.30;;;16.10;1.00;;;;;;5048299;28;20489;-55
2022/05/27 09:01:55;;;;;;;2.00;1.30;;;16.30;1.00;;;;;;5051191;28;20438;-56
2022/05/27 09:04:27;;;;;;;5.67;1.80;;;16.30;1.00;;;;;;5050352;28;21032;-57
2022/05/27 09:07:06;;;;;;;1.57;1.30;;;16.10;1.00;;;;;;5070856;28;20442;-55
2022/05/27 09:09:33;;;;;;;1.73;1.30;;;16.40;1.00;;;;;;5061562;28;20480;-56
2022/05/27 09:12:25;;;;;;;1.53;1.27;;;16.40;1.00;;;;;;5050499;28;20444;-54
2022/05/27 09:15:22;;;;;;;2.27;1.70;;;16.60;1.00;;;;;;5049313;28;21100;-55
2022/05/27 09:18:20;;;;;;;2.33;1.60;;;17.10;1.00;;;;;;5058567;28;20512;-56
2022/05/27 09:21:05;;;;;;;2.83;1.13;;;17.10;1.00;;;;;;5047428;28;20478;-54
2022/05/27 09:23:36;;;;;;;2.40;1.30;;;17.40;1.00;;;;;;5048295;28;20442;-54
2022/05/27 09:26:18;;;;;;;1.40;0.93;;;17.90;1.00;;;;;;5047236;28;20439;-53
2022/05/27 09:29:09;;;;;;;5.33;1.67;;;17.80;1.00;;;;;;5049073;28;20458;-54
2022/05/27 09:31:46;;;;;;;2.20;1.40;;;18.00;1.00;;;;;;5047499;28;20457;-52
2022/05/27 09:34:12;;;;;;;2.60;1.60;;;18.20;1.00;;;;;;5051060;28;20827;-55
2022/05/27 09:36:42;;;;;;;2.70;1.57;;;18.20;1.00;;;;;;5050320;28;20442;-54
2022/05/27 09:39:11;;;;;;;1.73;1.63;;;18.10;1.00;;;;;;5053314;28;20413;-53
2022/05/27 09:42:17;;;;;;;2.70;1.80;;;18.10;1.00;;;;;;5069383;28;20433;-53
2022/05/27 09:44:50;;;;;;;3.93;2.13;;;17.70;1.00;;;;;;5070082;28;20919;-57
2022/05/27 09:47:17;;;;;;;3.60;2.13;;;17.60;1.00;;;;;;5052590;28;20449;-55
2022/05/27 09:49:53;;;;;;;2.83;2.00;;;17.40;1.00;;;;;;5050229;28;20770;-55
2022/05/27 09:52:19;;;;;;;3.60;2.07;;;17.40;1.00;;;;;;5051066;28;20438;-56
2022/05/27 09:54:55;;;;;;;2.23;1.90;;;17.40;1.00;;;;;;5065332;28;20600;-55
2022/05/27 09:57:25;;;;;;;3.17;2.20;;;17.40;1.00;;;;;;5049848;28;20966;-54
2022/05/27 09:59:56;;;;;;;2.57;2.30;;;17.40;1.00;;;;;;5049037;28;20962;-56
2022/05/27 10:02:36;;;;;;;3.37;2.20;;;17.20;1.00;;;;;;5049569;28;21769;-56
2022/05/27 10:05:03;;;;;;;2.37;2.17;;;17.20;1.00;;;;;;5048745;28;20764;-57
2022/05/27 10:07:32;;;;;;;4.00;2.00;;;17.60;1.00;;;;;;5047768;28;20477;-52
2022/05/27 10:10:22;;;;;;;5.03;2.80;;;17.60;1.00;;;;;;5046792;28;20557;-53
2022/05/27 10:12:49;;;;;;;2.93;1.97;;;17.60;1.00;;;;;;5050676;28;20441;-55
2022/05/27 10:15:25;;;;;;;3.57;2.10;;;17.90;1.00;;;;;;5050372;28;20448;-55
2022/05/27 10:17:51;;;;;;;4.30;2.50;;;17.80;1.00;;;;;;5050502;28;20440;-56
2022/05/27 10:20:21;;;;;;;2.80;2.50;;;17.60;1.00;;;;;;5050405;28;20867;-54
2022/05/27 10:23:21;;;;;;;3.73;2.67;;;17.10;1.00;;;;;;5050356;28;20184;-55
2022/05/27 10:25:46;;;;;;;3.33;2.67;;;17.10;1.00;;;;;;5062696;28;20972;-55
2022/05/27 10:28:29;;;;;;;3.07;2.67;;;17.20;1.00;;;;;;5069615;28;20433;-53
2022/05/27 10:31:14;;;;;;;3.90;2.73;;;17.50;1.00;;;;;;5072738;28;20186;-53
2022/05/27 10:33:43;;;;;;;2.63;2.20;;;17.60;1.00;;;;;;5053168;28;20439;-55
2022/05/27 10:36:39;;;;;;;4.00;2.70;;;17.40;1.00;;;;;;5054080;28;20458;-53
2022/05/27 10:39:13;;;;;;;3.37;2.20;;;17.30;1.00;;;;;;5053963;28;20530;-57
2022/05/27 10:41:56;;;;;;;5.53;2.57;;;17.40;1.00;;;;;;5053606;28;20434;-55
2022/05/27 10:44:57;;;;;;;5.30;2.30;;;17.00;1.00;;;;;;5053067;28;20526;-56
2022/05/27 10:47:51;;;;;;;3.17;2.30;;;16.90;1.00;;;;;;5053434;28;20480;-57
2022/05/27 10:50:32;;;;;;;3.90;2.30;;;16.80;1.00;;;;;;5053331;28;20433;-54
2022/05/27 10:53:16;;;;;;;3.60;3.07;;;16.80;1.00;;;;;;5052680;28;20536;-55
2022/05/27 10:56:02;;;;;;;6.83;3.20;;;16.70;1.00;;;;;;5062824;28;20422;-55
2022/05/27 11:04:59;;;;;;;6.30;3.77;;;17.20;1.00;;;;;;5073618;28;20445;-56
2022/05/27 11:08:18;;;;;;;3.20;2.60;;;17.30;1.00;;;;;;5050602;28;20434;-55
2022/05/27 11:11:11;;;;;;;2.63;2.40;;;17.40;1.00;;;;;;5029276;28;20753;-54
2022/05/27 11:16:51;;;;;;;2.80;2.20;;;18.10;1.00;;;;;;5051037;28;20504;-54
2022/05/27 11:19:55;;;;;;;2.77;2.53;;;18.30;1.00;;;;;;5052871;28;20449;-53
2022/05/27 11:22:57;;;;;;;4.90;2.43;;;18.30;1.00;;;;;;5051577;28;20446;-56
2022/05/27 11:25:42;;;;;;;4.13;2.73;;;18.30;1.00;;;;;;5052349;28;20911;-56
2022/05/27 11:28:22;;;;;;;2.60;2.40;;;18.00;1.00;;;;;;5052390;28;20434;-54
2022/05/27 11:31:08;;;;;;;4.57;2.60;;;17.90;1.00;;;;;;5052673;28;20524;-55
2022/05/27 11:33:43;;;;;;;2.50;2.30;;;17.70;1.00;;;;;;5052304;28;20878;-57
2022/05/27 11:36:38;;;;;;;3.60;2.40;;;18.00;1.00;;;;;;5052439;28;20767;-54
2022/05/27 11:39:34;;;;;;;5.53;2.03;;;18.30;1.00;;;;;;5055512;28;20744;-55
2022/05/27 11:42:13;;;;;;;2.47;1.80;;;18.40;1.00;;;;;;5051533;28;20443;-56
2022/05/27 11:44:57;;;;;;;1.73;1.60;;;18.30;1.00;;;;;;5052424;28;21067;-56
2022/05/27 11:47:49;;;;;;;3.50;2.00;;;18.40;1.00;;;;;;5051578;28;20792;-53
2022/05/27 11:50:32;;;;;;;3.00;1.83;;;19.00;1.00;;;;;;5040398;28;20486;-55
2022/05/27 11:53:18;;;;;;;2.30;1.80;;;19.60;1.00;;;;;;5052481;28;20454;-54
2022/05/27 11:56:02;;;;;;;2.80;1.70;;;20.40;1.00;;;;;;5052191;28;20532;-53
2022/05/27 11:58:39;;;;;;;1.77;1.67;;;19.70;1.00;;;;;;5051870;28;20539;-56
2022/05/27 12:01:32;;;;;;;2.20;1.70;;;20.20;1.00;;;;;;5052038;28;20445;-55
2022/05/27 12:04:15;;;;;;;3.47;2.20;;;20.50;1.00;;;;;;5051879;28;20439;-54
2022/05/27 12:06:54;;;;;;;3.13;1.83;;;20.50;1.00;;;;;;5057288;28;20441;-57
2022/05/27 12:09:32;;;;;;;2.43;2.17;;;20.50;1.00;;;;;;5053145;28;20456;-54
2022/05/27 12:12:26;;;;;;;1.87;1.70;;;20.20;1.00;;;;;;5052029;28;20572;-56
2022/05/27 12:15:05;;;;;;;3.47;2.00;;;19.80;1.00;;;;;;5061106;28;20519;-54
2022/05/27 12:17:47;;;;;;;3.40;1.90;;;19.90;1.00;;;;;;5071811;28;20437;-53
2022/05/27 12:20:20;;;;;;;5.50;2.67;;;20.00;1.00;;;;;;5071754;28;20431;-56
2022/05/27 12:22:49;;;;;;;4.47;2.27;;;19.70;1.00;;;;;;5071604;28;20446;-54
2022/05/27 12:25:21;;;;;;;4.27;2.30;;;19.20;1.00;;;;;;5071503;28;20448;-54
2022/05/27 12:27:48;;;;;;;5.20;2.70;;;;;;;;;;5067972;28;20469;-55
2022/05/27 12:30:17;;;;;;;3.00;2.70;;;19.10;1.00;;;;;;5051769;28;20576;-55
2022/05/27 12:32:45;;;;;;;3.53;2.23;;;19.00;1.00;;;;;;5051342;28;20462;-54
2022/05/27 12:35:23;;;;;;;2.63;2.43;;;19.30;1.00;;;;;;5051513;28;20431;-55
2022/05/27 12:37:56;;;;;;;2.33;2.03;;;19.80;1.00;;;;;;5051324;28;20420;-54
2022/05/27 12:40:32;;;;;;;4.63;2.60;;;20.10;1.00;;;;;;5051570;28;20460;-56
2022/05/27 12:43:20;;;;;;;2.33;2.13;;;20.50;1.00;;;;;;5048702;28;20449;-57
2022/05/27 12:45:52;;;;;;;3.90;3.30;;;20.00;1.00;;;;;;5061387;28;20502;-53
2022/05/27 12:48:34;;;;;;;2.40;2.20;;;19.20;1.00;;;;;;5071463;28;20492;-56
2022/05/27 12:51:02;;;;;;;2.50;2.23;;;18.90;1.00;;;;;;5071126;28;20446;-53
2022/05/27 12:53:54;;;;;;;2.20;2.07;;;18.90;1.00;;;;;;5062974;28;20556;-55
2022/05/27 13:02:21;;;;;;;2.93;1.93;;;20.20;1.00;;;;;;5051012;28;20741;-55
2022/05/27 13:04:56;;;;;;;2.07;1.87;;;20.40;1.00;;;;;;5050743;28;20496;-54
2022/05/27 13:07:28;;;;;;;2.30;2.10;;;20.40;1.00;;;;;;5051117;28;20438;-54
2022/05/27 13:10:16;;;;;;;3.70;2.40;;;20.30;1.00;;;;;;5049882;28;20951;-56
2022/05/27 13:12:45;;;;;;;5.13;2.10;;;20.30;1.00;;;;;;5049896;28;20758;-55
2022/05/27 13:15:43;;;;;;;3.07;1.90;;;20.10;1.00;;;;;;5049738;28;20944;-55
2022/05/27 13:18:13;;;;;;;3.77;1.87;;;20.30;1.00;;;;;;5045788;28;20434;-55
2022/05/27 13:21:31;;;;;;;2.30;2.10;;;19.70;1.00;;;;;;5051024;28;20510;-54
2022/05/27 13:24:23;;;;;;;3.13;2.10;;;19.40;1.00;;;;;;5027448;28;20436;-55
2022/05/27 13:26:57;;;;;;;3.57;2.00;;;19.50;1.00;;;;;;5028272;28;20979;-54
2022/05/27 13:29:24;;;;;;;2.40;2.20;;;19.50;1.00;;;;;;5045933;28;20470;-55
2022/05/27 13:31:54;;;;;;;3.63;1.97;;;19.80;1.00;;;;;;5050696;28;20512;-55
2022/05/27 13:34:29;;;;;;;3.03;2.70;;;19.90;1.00;;;;;;5061235;28;20440;-54
2022/05/27 13:37:01;;;;;;;2.47;2.27;;;19.70;1.00;;;;;;5070403;28;20433;-55
2022/05/27 13:39:43;;;;;;;2.60;2.30;;;19.80;1.00;;;;;;5050646;28;20497;-52
2022/05/27 13:42:16;;;;;;;4.27;2.33;;;20.30;1.00;;;;;;5050423;28;20438;-53
2022/05/27 13:44:42;;;;;;;3.00;2.23;;;20.60;1.00;;;;;;5049186;28;20461;-55
2022/05/27 13:47:14;;;;;;;4.27;2.87;;;20.20;1.00;;;;;;5050623;28;20443;-55
2022/05/27 13:49:42;;;;;;;2.83;2.37;;;20.10;1.00;;;;;;5050667;28;20207;-52
2022/05/27 13:52:19;;;;;;;2.20;2.10;;;20.20;1.00;;;;;;5049297;28;20797;-55
2022/05/27 13:54:45;;;;;;;6.70;2.60;;;20.30;1.00;;;;;;5050722;28;20426;-56
2022/05/27 13:57:25;;;;;;;2.13;1.93;;;20.30;1.00;;;;;;5050423;28;20561;-53
2022/05/27 13:59:53;;;;;;;2.70;2.50;;;20.20;1.00;;;;;;5050341;28;20445;-54
2022/05/27 14:02:24;;;;;;;3.03;2.20;;;20.20;1.00;;;;;;5061808;28;20445;-52
2022/05/27 14:04:57;;;;;;;2.60;2.07;;;20.40;1.00;;;;;;5056757;28;20472;-54
2022/05/27 14:07:42;;;;;;;4.33;2.13;;;20.40;1.00;;;;;;5053913;28;20492;-55
2022/05/27 14:10:16;;;;;;;2.93;1.67;;;20.30;1.00;;;;;;5060201;28;20816;-54